Latest Weather Observations for North Head

IDN60901

Issued at 6:11 am EDT Saturday 18 November 2017 (issued every 10 minutes, with the page automatically refreshed every 10 minutes)

About weather observations | Map of Sydney area stations | Latest observations for Sydney area | Other Formats
Station Details ID: 066197 Name: NORTH HEAD Lat: -33.82 Lon: 151.30 Height: 90.0 m
Data from the previous 72 hours. | See also: Recent months for locations in New South Wales
Date/Time
EDT
Temp
°C
App
Temp
°C
Dew
Point
°C
Rel
Hum
%
Delta-T
°C
Wind Press
QNH
hPa
Press
MSL
hPa
Rain since
9am
mm
Dir  Spd
km/h
Gust
km/h
Spd
kts
Gust
kts
18/06:00am - - - - - NE 17 26 9 14 - - -
18/05:30am - - - - - NE 15 28 8 15 - - -
18/05:00am - - - - - NE 19 26 10 14 - - -
18/04:30am - - - - - ENE 17 24 9 13 - - -
18/04:00am - - - - - NE 13 20 7 11 - - -
18/03:30am - - - - - NE 19 28 10 15 - - -
18/03:00am - - - - - NE 15 20 8 11 - - -
18/02:30am - - - - - NE 17 28 9 15 - - -
18/02:00am - - - - - NE 17 28 9 15 - - -
18/01:30am - - - - - NE 17 28 9 15 - - -
18/01:00am - - - - - NE 22 33 12 18 - - -
18/12:30am - - - - - NE 22 35 12 19 - - -
18/12:00am - - - - - NE 17 30 9 16 - - -
 
Date/Time
EDT
Temp
°C
App
Temp
°C
Dew
Point
°C
Rel
Hum
%
Delta-T
°C
Wind Press
QNH
hPa
Press
MSL
hPa
Rain since
9am
mm
Dir  Spd
km/h
Gust
km/h
Spd
kts
Gust
kts
17/11:30pm - - - - - ENE 20 30 11 16 - - -
17/11:00pm - - - - - NE 15 24 8 13 - - -
17/10:30pm - - - - - ENE 20 32 11 17 - - -
17/10:00pm - - - - - NE 22 33 12 18 - - -
17/09:30pm - - - - - NE 22 35 12 19 - - -
17/09:00pm - - - - - ENE 22 35 12 19 - - -
17/08:30pm - - - - - ENE 20 32 11 17 - - -
17/08:00pm - - - - - NE 20 30 11 16 - - -
17/07:30pm - - - - - NE 19 32 10 17 - - -
17/07:00pm - - - - - NE 22 37 12 20 - - -
17/06:30pm - - - - - ENE 24 41 13 22 - - -
17/06:00pm - - - - - ENE 26 37 14 20 - - -
17/05:30pm - - - - - ENE 24 37 13 20 - - -
17/05:00pm - - - - - NE 22 33 12 18 - - -
17/04:30pm - - - - - NE 22 35 12 19 - - -
17/04:00pm - - - - - NE 24 35 13 19 - - -
17/03:30pm - - - - - NE 24 35 13 19 - - -
17/03:00pm - - - - - NE 30 46 16 25 - - -
17/02:30pm - - - - - NE 28 43 15 23 - - -
17/02:00pm - - - - - NE 26 41 14 22 - - -
17/01:30pm - - - - - NE 20 35 11 19 - - -
17/01:00pm - - - - - NE 20 35 11 19 - - -
17/12:30pm - - - - - NE 22 35 12 19 - - -
17/12:00pm - - - - - NNE 19 32 10 17 - - -
17/11:30am - - - - - NNE 20 30 11 16 - - -
17/11:00am - - - - - NE 20 37 11 20 - - -
17/10:30am - - - - - NNE 22 35 12 19 - - -
17/10:00am - - - - - NNE 22 33 12 18 - - -
17/09:30am - - - - - NE 17 28 9 15 - - -
17/09:00am - - - - - NNE 19 28 10 15 - - -
17/08:30am - - - - - NNE 17 24 9 13 - - -
17/08:00am - - - - - NNE 19 26 10 14 - - -
17/07:30am - - - - - NNE 17 24 9 13 - - -
17/07:00am - - - - - NNE 17 30 9 16 - - -
17/06:30am - - - - - NNE 15 22 8 12 - - -
17/06:00am - - - - - NNE 15 22 8 12 - - -
17/05:30am - - - - - NNE 17 24 9 13 - - -
17/05:00am - - - - - NNE 17 26 9 14 - - -
17/04:30am - - - - - NNE 15 24 8 13 - - -
17/04:00am - - - - - NNE 15 20 8 11 - - -
17/03:30am - - - - - NE 13 20 7 11 - - -
17/03:00am - - - - - NE 11 17 6 9 - - -
17/02:30am - - - - - NE 11 19 6 10 - - -
17/02:00am - - - - - NE 11 15 6 8 - - -
17/01:30am - - - - - NNE 13 20 7 11 - - -
17/01:00am - - - - - NNE 17 24 9 13 - - -
17/12:30am - - - - - NE 19 26 10 14 - - -
17/12:00am - - - - - NNE 19 32 10 17 - - -
 
Date/Time
EDT
Temp
°C
App
Temp
°C
Dew
Point
°C
Rel
Hum
%
Delta-T
°C
Wind Press
QNH
hPa
Press
MSL
hPa
Rain since
9am
mm
Dir  Spd
km/h
Gust
km/h
Spd
kts
Gust
kts
16/11:30pm - - - - - NNE 17 24 9 13 - - -
16/11:00pm - - - - - NNE 17 26 9 14 - - -
16/10:30pm - - - - - NNE 17 26 9 14 - - -
16/10:00pm - - - - - NNE 17 24 9 13 - - -
16/09:30pm - - - - - NNE 19 32 10 17 - - -
16/09:00pm - - - - - NNE 20 33 11 18 - - -
16/08:30pm - - - - - NE 24 37 13 20 - - -
16/08:00pm - - - - - NE 24 35 13 19 - - -
16/07:30pm - - - - - NE 22 32 12 17 - - -
16/07:00pm - - - - - NE 20 37 11 20 - - -
16/06:30pm - - - - - NNE 17 24 9 13 - - -
16/06:00pm - - - - - NNE 15 22 8 12 - - -
16/05:30pm - - - - - NNE 15 22 8 12 - - -
16/05:00pm - - - - - NNE 15 20 8 11 - - -
16/04:30pm - - - - - NNE 17 24 9 13 - - -
16/04:00pm - - - - - NNE 17 24 9 13 - - -
16/03:30pm - - - - - NNE 15 26 8 14 - - -
16/03:00pm - - - - - NE 19 30 10 16 - - -
16/02:30pm - - - - - NE 17 24 9 13 - - -
16/02:00pm - - - - - NE 19 32 10 17 - - -
16/01:30pm - - - - - NE 19 35 10 19 - - -
16/01:00pm - - - - - NE 20 33 11 18 - - -
16/12:30pm - - - - - NE 20 32 11 17 - - -
16/12:00pm - - - - - NE 22 33 12 18 - - -
16/11:30am - - - - - NE 22 35 12 19 - - -
16/11:00am - - - - - NE 19 32 10 17 - - -
16/10:30am - - - - - NE 19 30 10 16 - - -
16/10:00am - - - - - NNE 20 28 11 15 - - -
16/09:30am - - - - - NNE 19 30 10 16 - - -
16/09:00am - - - - - NNE 17 26 9 14 - - -
16/08:30am - - - - - NNE 15 24 8 13 - - -
16/08:00am - - - - - NNE 15 26 8 14 - - -
16/07:30am - - - - - NNE 13 22 7 12 - - -
16/07:00am - - - - - NNE 15 24 8 13 - - -
16/06:30am - - - - - NNE 13 20 7 11 - - -
16/06:00am - - - - - NNE 11 20 6 11 - - -
16/05:30am - - - - - NNE 13 19 7 10 - - -
16/05:00am - - - - - NNE 17 28 9 15 - - -
16/04:30am - - - - - NNE 17 26 9 14 - - -
16/04:00am - - - - - NNE 19 32 10 17 - - -
16/03:30am - - - - - NNE 17 28 9 15 - - -
16/03:00am - - - - - NNE 19 30 10 16 - - -
16/02:30am - - - - - NNE 19 28 10 15 - - -
16/02:00am - - - - - NNE 19 28 10 15 - - -
16/01:30am - - - - - NNE 19 30 10 16 - - -
16/01:00am - - - - - NNE 22 37 12 20 - - -
16/12:30am - - - - - NNE 22 37 12 20 - - -
16/12:00am - - - - - NNE 22 39 12 21 - - -
 
Date/Time
EDT
Temp
°C
App
Temp
°C
Dew
Point
°C
Rel
Hum
%
Delta-T
°C
Wind Press
QNH
hPa
Press
MSL
hPa
Rain since
9am
mm
Dir  Spd
km/h
Gust
km/h
Spd
kts
Gust
kts
15/11:30pm - - - - - NNE 22 33 12 18 - - -
15/11:00pm - - - - - NNE 24 39 13 21 - - -
15/10:30pm - - - - - NNE 22 37 12 20 - - -
15/10:00pm - - - - - NNE 22 37 12 20 - - -
15/09:30pm - - - - - NNE 22 35 12 19 - - -
15/09:00pm - - - - - NNE 22 33 12 18 - - -
15/08:30pm - - - - - NNE 20 30 11 16 - - -
15/08:00pm - - - - - NNE 19 28 10 15 - - -
15/07:30pm - - - - - NE 19 30 10 16 - - -
15/07:00pm - - - - - NE 20 33 11 18 - - -
15/06:30pm - - - - - NE 26 39 14 21 - - -
15/06:00pm - - - - - NE 24 39 13 21 - - -
15/05:30pm - - - - - ENE 26 44 14 24 - - -
15/05:00pm - - - - - NE 26 41 14 22 - - -
15/04:30pm - - - - - NE 24 37 13 20 - - -
15/04:00pm - - - - - NE 19 32 10 17 - - -
15/03:30pm - - - - - NE 24 37 13 20 - - -
15/03:00pm - - - - - NE 22 39 12 21 - - -
15/02:30pm - - - - - ENE 22 32 12 17 - - -
15/02:00pm - - - - - NE 22 35 12 19 - - -
15/01:30pm - - - - - NE 22 35 12 19 - - -
15/01:00pm - - - - - NE 17 28 9 15 - - -
15/12:30pm - - - - - NE 17 28 9 15 - - -
15/12:00pm - - - - - NE 17 26 9 14 - - -
15/11:30am - - - - - NE 15 24 8 13 - - -
15/11:00am - - - - - NE 11 17 6 9 - - -
15/10:30am - - - - - NNE 9 17 5 9 - - -
15/10:00am - - - - - E 11 17 6 9 - - -
15/09:30am - - - - - ENE 9 13 5 7 - - -
15/09:00am - - - - - E 7 13 4 7 - - -
15/08:30am - - - - - ESE 7 11 4 6 - - -
15/08:00am - - - - - SE 7 9 4 5 - - -
15/07:30am - - - - - SW 4 6 2 3 - - -
15/07:00am - - - - - WSW 6 7 3 4 - - -
15/06:30am - - - - - WSW 6 7 3 4 - - -

Latest Capital City Observations: Canberra | Sydney | Melbourne | Brisbane | Adelaide | Perth | Hobart | Darwin

Other Formats:

Comma delimited format used in spreadsheet applications
http://www.bom.gov.au/fwo/IDN60901/IDN60901.95768.axf

JavaScript Object Notation format (JSON) in row-major order
http://www.bom.gov.au/fwo/IDN60901/IDN60901.95768.json